This is the latest recevied weather packets stored in our database for station/object F5SHG-3. If no packets are shown the sender has not sent any weather packets the latest 10 day(s).
| Time | Temp. | Humidity | Pressure | Rain* | Wind** | Luminosity | Snow |
|---|---|---|---|---|---|---|---|
| 1777066225 | 20.56° C | 31% | 1018.7 hPa | - | - | - | - |
| 1777066221 | 20.56° C | 31% | 1018.7 hPa | - | - | - | - |
| 1777065324 | 21.11° C | 31% | 1018.6 hPa | - | - | - | - |
| 1777065320 | 21.11° C | 31% | 1018.6 hPa | - | - | - | - |
| 1777064424 | 21.11° C | 30% | 1018.6 hPa | - | - | - | - |
| 1777064420 | 21.11° C | 30% | 1018.6 hPa | - | - | - | - |
| 1777063524 | 21.67° C | 30% | 1018.6 hPa | - | - | - | - |
| 1777063520 | 21.67° C | 30% | 1018.6 hPa | - | - | - | - |
| 1777062624 | 21.67° C | 29% | 1018.6 hPa | - | - | - | - |
| 1777062620 | 21.67° C | 29% | 1018.6 hPa | - | - | - | - |
| 1777061724 | 22.22° C | 29% | 1018.3 hPa | - | - | - | - |
| 1777061720 | 22.22° C | 29% | 1018.3 hPa | - | - | - | - |
| 1777060824 | 22.22° C | 29% | 1018.4 hPa | - | - | - | - |
| 1777060820 | 22.22° C | 29% | 1018.4 hPa | - | - | - | - |
| 1777059924 | 22.78° C | 28% | 1018.3 hPa | - | - | - | - |
| 1777059920 | 22.78° C | 28% | 1018.3 hPa | - | - | - | - |
| 1777059025 | 23.33° C | 28% | 1018.1 hPa | - | - | - | - |
| 1777059020 | 23.33° C | 28% | 1018.1 hPa | - | - | - | - |
| 1777058124 | 23.89° C | 27% | 1018 hPa | - | - | - | - |
| 1777058120 | 23.89° C | 27% | 1018 hPa | - | - | - | - |
| 1777057225 | 24.44° C | 26% | 1017.8 hPa | - | - | - | - |
| 1777057220 | 24.44° C | 26% | 1017.8 hPa | - | - | - | - |
| 1777056324 | 25° C | 24% | 1017.7 hPa | - | - | - | - |
| 1777056320 | 25° C | 24% | 1017.7 hPa | - | - | - | - |
| 1777055425 | 26.11° C | 24% | 1017.6 hPa | - | - | - | - |
* Rain since midnight (hover to see other rain measurements)
** Current wind speed in m/s (hover to see current wind gust speed)